Time;durP1;ratioP1;P1;durP2;ratioP2;P2;SDS_P1;SDS_P2;PMS_P1;PMS_P2;Temp;Humidity;BMP_temperature;BMP_pressure;BME280_temperature;BME280_humidity;BME280_pressure;Samples;Min_cycle;Max_cycle;Signal;HPM_P1;HPM_P2
2022/06/20 00:01:21;;;;;;;2.20;2.10;;;;;;;23.86;94.85;100138.44;5071765;28;20206;-71
2022/06/20 00:03:49;;;;;;;5.45;2.53;;;;;;;23.85;95.28;100133.16;5071198;28;20214;-72
2022/06/20 00:06:21;;;;;;;4.28;2.38;;;;;;;23.86;94.62;100135.78;5072229;28;20209;-72
2022/06/20 00:08:51;;;;;;;3.38;2.42;;;;;;;23.72;95.20;100143.38;5071624;28;20198;-72
2022/06/20 00:11:22;;;;;;;4.50;2.58;;;;;;;23.79;97.75;100136.94;5071958;28;20353;-71
2022/06/20 00:13:52;;;;;;;4.03;2.67;;;;;;;23.84;94.70;100137.59;5070741;28;20916;-72
2022/06/20 00:16:19;;;;;;;2.85;2.65;;;;;;;23.30;93.89;100068.16;5071259;28;20244;-72
2022/06/20 00:18:47;;;;;;;4.95;2.28;;;;;;;23.63;96.56;100134.00;5071702;28;20253;-72
2022/06/20 00:21:16;;;;;;;2.70;2.13;;;;;;;23.62;96.89;100124.31;5036513;28;20190;-72
2022/06/20 00:23:43;;;;;;;6.93;2.67;;;;;;;23.59;95.75;100135.03;5069992;28;20206;-72
2022/06/20 00:26:10;;;;;;;3.05;2.50;;;;;;;23.53;92.57;100127.31;5071183;28;20199;-71
2022/06/20 00:28:38;;;;;;;4.93;2.30;;;;;;;23.22;94.22;100061.38;5052193;28;20559;-72
2022/06/20 00:31:06;;;;;;;2.15;2.05;;;;;;;23.60;94.45;100127.94;5071675;28;20234;-72
2022/06/20 00:33:34;;;;;;;3.83;2.38;;;;;;;23.55;94.51;100135.19;5071132;28;20199;-72
2022/06/20 00:36:02;;;;;;;6.03;2.40;;;;;;;23.67;91.32;100134.75;5070905;28;20202;-72
2022/06/20 00:38:30;;;;;;;2.25;2.15;;;;;;;23.56;90.37;100108.66;5071486;28;20198;-72
2022/06/20 00:40:59;;;;;;;2.47;2.10;;;;;;;23.76;90.07;100121.13;5070716;28;20232;-72
2022/06/20 00:43:33;;;;;;;4.20;2.47;;;;;;;23.62;89.68;100105.78;5052867;28;20191;-72
2022/06/20 00:46:05;;;;;;;2.70;2.30;;;;;;;23.60;89.67;100122.66;5070674;28;20217;-72
2022/06/20 00:48:38;;;;;;;2.53;2.17;;;;;;;23.67;88.96;100116.19;5070994;28;20198;-72
2022/06/20 00:51:09;;;;;;;5.28;2.30;;;;;;;23.46;89.91;100101.13;5067147;28;20230;-72
2022/06/20 00:53:47;;;;;;;3.38;1.90;;;;;;;23.46;88.52;100098.47;5070420;28;20198;-72
2022/06/20 00:56:19;;;;;;;2.05;1.95;;;;;;;23.52;86.23;100114.13;5070747;28;20689;-72
2022/06/20 00:58:52;;;;;;;3.65;2.35;;;;;;;23.43;85.64;100112.69;5070444;28;20217;-72
2022/06/20 01:01:28;;;;;;;2.28;1.98;;;;;;;23.33;84.67;100095.38;5070724;28;20667;-72
2022/06/20 01:04:00;;;;;;;2.00;1.80;;;;;;;23.28;84.21;100109.72;5070927;28;20573;-71
2022/06/20 01:06:33;;;;;;;2.15;1.80;;;;;;;23.02;85.38;100060.38;5070889;28;20207;-71
2022/06/20 01:09:07;;;;;;;2.90;2.03;;;;;;;23.23;81.88;100092.22;5070584;28;20225;-72
2022/06/20 01:11:43;;;;;;;3.13;1.80;;;;;;;23.21;79.76;100103.78;5070531;28;20219;-72
2022/06/20 01:14:22;;;;;;;2.97;1.70;;;;;;;23.07;78.78;100080.47;5070170;28;20226;-71
2022/06/20 01:16:53;;;;;;;2.78;1.80;;;;;;;23.14;79.41;100099.63;5070669;28;20662;-72
2022/06/20 03:00:37;;;;;;;4.25;2.20;;;;;;;21.62;94.15;100065.00;5109218;27;20525;-73
2022/06/20 03:03:09;;;;;;;3.38;2.30;;;;;;;21.93;93.38;100059.69;5096586;28;20202;-73
2022/06/20 03:05:36;;;;;;;6.30;2.53;;;;;;;22.28;100.00;100070.88;5088948;28;20202;-71
2022/06/20 03:08:04;;;;;;;3.30;2.75;;;;;;;22.25;100.00;100034.88;5088683;28;20249;-73
2022/06/20 03:10:36;;;;;;;3.22;2.92;;;;;;;22.42;100.00;100058.06;5052863;28;20209;-74
2022/06/20 03:13:04;;;;;;;5.15;3.08;;;;;;;22.31;100.00;100041.72;5088485;28;20615;-72
2022/06/20 03:15:33;;;;;;;3.85;3.42;;;;;;;22.43;100.00;100065.97;5088328;28;20222;-73
2022/06/20 03:18:00;;;;;;;5.40;3.08;;;;;;;22.04;100.00;100032.94;5069632;28;20638;-73
2022/06/20 03:20:28;;;;;;;3.28;2.47;;;;;;;22.33;100.00;100056.59;5088524;28;20191;-73
2022/06/20 03:23:03;;;;;;;2.15;2.00;;;;;;;22.59;100.00;100055.72;5088344;28;20206;-73
2022/06/20 03:25:31;;;;;;;4.75;2.17;;;;;;;22.47;100.00;100053.50;5088307;28;20212;-73
2022/06/20 03:27:58;;;;;;;4.32;2.75;;;;;;;22.58;100.00;100054.84;5088338;28;20205;-74
2022/06/20 03:30:30;;;;;;;3.17;2.97;;;;;;;22.24;100.00;100057.78;5088106;28;20198;-73
2022/06/20 03:33:01;;;;;;;4.72;4.32;;;;;;;22.23;100.00;100073.66;5087911;28;20198;-74
2022/06/20 03:35:30;;;;;;;10.23;4.88;;;;;;;22.39;100.00;100063.47;5088212;28;20195;-75
2022/06/20 03:37:58;;;;;;;10.18;5.07;;;;;;;22.77;100.00;100080.69;5088283;28;20289;-73
2022/06/20 03:40:26;;;;;;;6.55;4.40;;;;;;;23.09;100.00;100075.97;5088045;28;20195;-73
2022/06/20 03:42:53;;;;;;;8.60;5.13;;;;;;;23.34;100.00;100072.44;5087661;28;20199;-73
2022/06/20 03:45:22;;;;;;;6.93;5.07;;;;;;;23.88;100.00;100075.66;5087641;28;20190;-74
2022/06/20 03:47:54;;;;;;;5.05;3.78;;;;;;;24.84;100.00;100085.84;5087842;28;20205;-75
2022/06/20 03:50:28;;;;;;;7.68;3.92;;;;;;;25.70;95.09;100088.16;5088046;28;20203;-74
2022/06/20 03:53:01;;;;;;;6.50;3.58;;;;;;;26.35;87.82;100087.69;5087668;28;20201;-74
2022/06/20 03:55:33;;;;;;;4.35;3.38;;;;;;;26.71;83.18;100099.16;5069365;28;20202;-74
2022/06/20 03:58:13;;;;;;;4.90;2.90;;;;;;;27.20;80.84;100099.28;5087772;28;20198;-73
2022/06/20 04:00:47;;;;;;;5.00;3.15;;;;;;;27.52;76.56;100093.13;5058311;28;20203;-73
2022/06/20 04:03:20;;;;;;;5.57;3.40;;;;;;;27.93;72.36;100069.53;5053907;28;20195;-72
2022/06/20 04:05:53;;;;;;;3.08;2.75;;;;;;;27.76;73.60;100089.13;5054216;28;20198;-72
2022/06/20 04:10:57;;;;;;;4.18;3.47;;;;;;;28.28;71.97;100096.88;5054025;28;20698;-74
2022/06/20 04:11:15;;;;;;;4.60;3.60;;;;;;;28.08;69.32;100093.53;5053622;28;20199;-73
2022/06/20 04:13:52;;;;;;;4.45;3.33;;;;;;;28.31;68.95;100038.03;5054084;28;20222;-73
2022/06/20 04:16:24;;;;;;;4.07;2.92;;;;;;;29.00;63.81;100108.56;5053724;28;20191;-73
2022/06/20 04:19:00;;;;;;;3.10;2.90;;;;;;;29.02;62.13;100096.00;5053518;28;20209;-73
2022/06/20 04:21:35;;;;;;;4.40;3.22;;;;;;;29.36;60.23;100110.00;5053283;28;20615;-73
2022/06/20 04:24:12;;;;;;;7.60;3.38;;;;;;;29.94;57.15;100097.34;5054144;28;20639;-73
2022/06/20 04:26:45;;;;;;;3.42;3.13;;;;;;;30.10;56.92;100107.06;5054441;28;20246;-73
2022/06/20 04:29:18;;;;;;;5.70;3.00;;;;;;;29.71;56.42;100043.63;5053846;28;20756;-73
2022/06/20 04:31:51;;;;;;;9.95;3.22;;;;;;;30.82;54.53;100112.91;5035314;28;20210;-73
2022/06/20 04:34:21;;;;;;;8.25;2.88;;;;;;;30.74;54.52;100109.91;5019157;28;20202;-73
2022/06/20 04:36:55;;;;;;;5.43;2.85;;;;;;;30.75;55.37;100106.25;5054022;28;20222;-73
2022/06/20 04:39:28;;;;;;;2.67;2.58;;;;;;;30.19;54.92;100112.66;5054087;28;20205;-73
2022/06/20 04:42:01;;;;;;;5.43;2.60;;;;;;;30.00;56.56;100104.97;5053870;28;20691;-73
2022/06/20 04:44:37;;;;;;;3.47;2.15;;;;;;;29.69;56.84;100115.88;5053310;28;20583;-73
2022/06/20 04:47:15;;;;;;;3.15;2.65;;;;;;;28.88;58.63;100042.59;5033682;28;20211;-73
2022/06/20 04:49:42;;;;;;;3.63;2.67;;;;;;;28.35;62.06;100112.44;5033533;28;20235;-73
2022/06/20 04:52:15;;;;;;;2.53;2.33;;;;;;;28.00;66.05;100114.38;5049022;28;20210;-72
2022/06/20 04:54:42;;;;;;;2.58;2.33;;;;;;;28.51;63.54;100107.06;5053294;28;20684;-72
2022/06/20 04:57:10;;;;;;;3.83;2.30;;;;;;;29.52;59.58;100122.31;5053283;28;20198;-72
2022/06/20 04:59:38;;;;;;;5.85;2.47;;;;;;;29.69;57.77;100126.59;5079082;28;20233;-72
2022/06/20 05:02:12;;;;;;;3.33;2.85;;;;;;;30.06;56.06;100118.94;5072678;28;20209;-72
2022/06/20 05:04:42;;;;;;;2.90;2.70;;;;;;;30.74;54.07;100125.09;5093212;28;20197;-72
2022/06/20 05:07:17;;;;;;;2.85;2.60;;;;;;;31.21;52.11;100125.44;5093612;28;20575;-72
2022/06/20 05:09:50;;;;;;;2.83;2.58;;;;;;;31.41;51.76;100126.72;5089557;28;20221;-72
2022/06/20 05:12:25;;;;;;;3.25;2.47;;;;;;;32.12;50.21;100123.41;5091560;28;20224;-72
2022/06/20 05:14:59;;;;;;;6.20;2.40;;;;;;;32.31;48.69;100091.56;5092461;28;20249;-71
2022/06/20 05:17:30;;;;;;;4.25;2.60;;;;;;;32.66;47.19;100107.75;5092918;28;20204;-71
2022/06/20 05:20:01;;;;;;;4.63;2.97;;;;;;;33.39;45.88;100130.66;5092629;28;20197;-72
2022/06/20 05:22:33;;;;;;;5.28;2.63;;;;;;;33.75;44.46;100112.59;5092442;28;20197;-72
2022/06/20 05:25:08;;;;;;;5.72;2.92;;;;;;;32.42;45.21;100029.88;5092055;28;20201;-72
2022/06/20 05:27:43;;;;;;;3.97;2.63;;;;;;;32.95;45.80;100075.94;5092560;28;20209;-71
2022/06/20 05:30:17;;;;;;;3.17;2.50;;;;;;;33.07;44.89;100124.22;5092096;28;20229;-71
2022/06/20 05:32:54;;;;;;;6.13;2.72;;;;;;;32.08;46.81;100116.56;5092011;28;20676;-71
2022/06/20 05:54:23;;;;;;;6.22;3.22;;;;;;;31.40;50.42;100088.31;5109295;27;21098;-75
2022/06/20 05:56:54;;;;;;;14.75;2.92;;;;;;;31.57;50.70;100103.22;5109431;28;20205;-75
2022/06/20 05:59:44;;;;;;;2.92;2.60;;;;;;;31.90;49.71;100087.38;5087897;28;20204;-75
2022/06/20 06:02:21;;;;;;;6.38;3.10;;;;;;;31.60;51.27;100081.59;5038278;28;20717;-77
2022/06/20 06:04:54;;;;;;;10.90;3.22;;;;;;;31.57;52.24;100092.50;5047123;28;20202;-76
2022/06/20 06:07:27;;;;;;;6.10;3.55;;;;;;;31.58;50.81;100086.19;5013815;28;20687;-76
2022/06/20 06:10:00;;;;;;;6.38;3.70;;;;;;;31.63;51.49;100084.03;5047139;28;20195;-76
2022/06/20 06:12:32;;;;;;;3.85;3.42;;;;;;;31.27;51.59;100059.81;5047235;28;20229;-76
2022/06/20 06:15:06;;;;;;;7.53;3.40;;;;;;;31.67;50.06;100076.63;5047114;28;20199;-76
2022/06/20 06:17:40;;;;;;;3.17;2.95;;;;;;;31.39;52.24;100065.16;5046956;28;20199;-76
2022/06/20 06:20:13;;;;;;;4.88;3.13;;;;;;;32.10;50.45;100071.69;5046956;28;20207;-76
2022/06/20 06:22:43;;;;;;;3.20;2.90;;;;;;;31.64;50.91;100075.03;5046295;28;20234;-76
2022/06/20 06:25:22;;;;;;;3.25;2.80;;;;;;;30.96;50.59;100069.13;5046785;28;20288;-76
2022/06/20 06:27:54;;;;;;;6.85;2.75;;;;;;;30.01;49.83;100077.28;5047148;28;20203;-76
2022/06/20 06:30:23;;;;;;;3.25;2.58;;;;;;;30.50;49.80;100076.78;5014127;28;20245;-76
2022/06/20 06:32:54;;;;;;;4.70;2.88;;;;;;;29.19;53.06;100059.38;5046532;28;20667;-76
2022/06/20 06:35:26;;;;;;;3.13;2.92;;;;;;;29.53;53.61;100069.72;5046026;28;20202;-74
2022/06/20 06:37:58;;;;;;;3.85;3.10;;;;;;;29.76;53.25;100066.44;5045955;28;20199;-75
2022/06/20 06:40:33;;;;;;;2.85;2.65;;;;;;;30.44;50.99;100058.41;5108721;28;20193;-74
2022/06/20 06:43:02;;;;;;;7.55;2.80;;;;;;;30.10;51.91;100029.50;5108623;28;20224;-75
2022/06/20 06:45:34;;;;;;;2.90;2.60;;;;;;;30.30;50.29;100012.97;5109116;28;20197;-75
2022/06/20 06:48:09;;;;;;;4.55;2.80;;;;;;;30.26;51.10;100043.56;5108866;28;20197;-75
2022/06/20 06:50:40;;;;;;;4.10;2.63;;;;;;;29.85;52.49;100052.50;5108620;28;20204;-75
2022/06/20 06:53:15;;;;;;;4.45;2.75;;;;;;;29.61;51.77;100042.50;5117882;28;20225;-75
2022/06/20 06:55:49;;;;;;;7.32;3.05;;;;;;;29.65;52.00;100046.69;5115044;28;20193;-73
2022/06/20 06:58:21;;;;;;;3.95;3.25;;;;;;;29.54;52.82;100039.34;5115477;28;20664;-75
2022/06/20 07:00:53;;;;;;;6.97;2.85;;;;;;;29.49;54.45;100020.09;5115020;28;20685;-74
2022/06/20 07:03:27;;;;;;;5.43;3.00;;;;;;;29.56;54.51;100037.44;5115012;28;20221;-75
2022/06/20 07:05:59;;;;;;;10.13;2.55;;;;;;;29.65;54.80;100031.50;5115171;28;20215;-74
2022/06/20 07:08:29;;;;;;;4.75;2.72;;;;;;;29.25;54.91;100026.97;5114888;28;20204;-75
2022/06/20 07:11:03;;;;;;;9.27;3.13;;;;;;;29.23;55.06;100031.53;5115228;28;20563;-74
2022/06/20 07:13:38;;;;;;;5.60;2.53;;;;;;;29.20;53.78;100019.22;5115412;28;20608;-75
2022/06/20 07:16:19;;;;;;;4.40;2.40;;;;;;;29.51;51.03;100024.38;5115164;28;20204;-74
2022/06/20 07:18:50;;;;;;;3.75;2.40;;;;;;;28.82;53.49;99996.72;5114695;28;20284;-76
2022/06/20 07:21:19;;;;;;;4.72;2.95;;;;;;;28.63;54.94;100002.28;5114631;28;20286;-74
2022/06/20 07:23:49;;;;;;;4.65;2.70;;;;;;;28.82;56.13;100008.25;5114329;28;20217;-75
2022/06/20 07:26:21;;;;;;;9.43;2.90;;;;;;;28.88;56.15;100018.56;5114482;28;20235;-75
2022/06/20 07:28:53;;;;;;;3.28;2.75;;;;;;;29.09;56.68;100012.81;5114235;28;20274;-75
2022/06/20 07:31:25;;;;;;;4.13;2.58;;;;;;;29.12;54.60;99999.28;5114131;27;20661;-75
2022/06/20 07:33:56;;;;;;;6.78;2.50;;;;;;;29.43;53.68;100013.31;5114158;28;20205;-75
2022/06/20 07:36:28;;;;;;;7.20;2.55;;;;;;;29.27;51.00;100009.03;5079597;28;20758;-76
2022/06/20 07:39:00;;;;;;;3.22;2.45;;;;;;;28.76;50.50;100008.63;5114568;28;20196;-76
2022/06/20 07:41:35;;;;;;;11.45;2.50;;;;;;;28.77;51.52;99986.31;5114434;28;20200;-75
2022/06/20 07:44:06;;;;;;;4.22;2.50;;;;;;;28.72;50.43;99959.03;5113795;28;20220;-75
2022/06/20 07:46:38;;;;;;;6.72;2.58;;;;;;;29.03;50.37;100006.06;5113831;28;20204;-71
2022/06/20 07:49:13;;;;;;;4.22;2.08;;;;;;;28.89;50.31;100003.41;5113621;28;20198;-72
2022/06/20 07:51:43;;;;;;;2.08;1.98;;;;;;;28.76;49.40;100000.59;5113395;28;20197;-72
2022/06/20 07:54:14;;;;;;;3.53;2.00;;;;;;;28.86;47.91;100003.59;5109005;28;20221;-72
2022/06/20 07:56:47;;;;;;;3.28;2.03;;;;;;;28.99;49.69;100005.41;5104204;28;20197;-73
2022/06/20 07:59:19;;;;;;;2.97;2.45;;;;;;;29.45;49.17;100005.22;5109424;28;20200;-72
2022/06/20 08:01:52;;;;;;;2.97;2.28;;;;;;;29.15;49.08;99999.09;5107268;28;20201;-72
2022/06/20 08:04:27;;;;;;;5.25;2.33;;;;;;;29.22;50.23;100003.09;5112854;28;20217;-72
2022/06/20 08:06:58;;;;;;;2.38;2.22;;;;;;;29.65;48.72;99994.06;5112020;28;20668;-72
2022/06/20 08:09:30;;;;;;;5.55;1.90;;;;;;;30.00;47.50;99973.94;5098511;28;20258;-74
2022/06/20 08:12:03;;;;;;;3.33;1.90;;;;;;;30.49;46.03;99987.59;5094158;28;20205;-75
2022/06/20 08:14:38;;;;;;;3.60;1.80;;;;;;;30.87;43.44;100003.66;5113194;28;20215;-74
2022/06/20 08:17:09;;;;;;;2.55;1.80;;;;;;;30.88;42.55;100008.06;5113199;28;20204;-73
2022/06/20 08:19:38;;;;;;;1.85;1.70;;;;;;;30.55;41.88;100007.69;5107641;28;20221;-74
2022/06/20 08:22:12;;;;;;;3.58;1.92;;;;;;;30.09;42.57;99999.22;5092419;28;20230;-74
2022/06/20 08:24:45;;;;;;;1.95;1.85;;;;;;;30.41;44.82;99997.03;5092407;28;20206;-75
2022/06/20 08:27:21;;;;;;;5.50;2.28;;;;;;;30.57;45.09;100002.25;5092293;28;20685;-74
2022/06/20 08:29:53;;;;;;;6.18;2.10;;;;;;;30.05;45.52;100002.19;5093045;28;20284;-74
2022/06/20 08:32:30;;;;;;;2.30;2.20;;;;;;;30.05;45.47;100007.53;5092462;28;20206;-74
2022/06/20 08:35:03;;;;;;;3.28;2.10;;;;;;;30.42;45.29;99985.44;5092679;28;20203;-74
2022/06/20 08:37:36;;;;;;;2.40;2.30;;;;;;;30.52;44.25;100013.28;5092453;28;20194;-72
2022/06/20 08:40:32;;;;;;;2.92;2.30;;;;;;;30.88;44.32;100016.09;5106311;28;20198;-70
2022/06/20 08:43:35;;;;;;;7.93;2.20;;;;;;;30.88;42.98;100013.41;5062679;28;20225;-70
2022/06/20 08:46:22;;;;;;;6.25;1.85;;;;;;;30.75;43.10;100014.38;5042048;28;20281;-71
2022/06/20 08:49:19;;;;;;;6.55;2.03;;;;;;;30.22;43.63;100009.94;5036918;28;20202;-71
2022/06/20 08:52:28;;;;;;;7.50;1.95;;;;;;;30.67;44.58;100012.22;5049390;28;20655;-70
2022/06/20 08:55:44;;;;;;;2.10;2.00;;;;;;;30.70;44.55;99998.63;5049525;28;20597;-71
2022/06/20 08:58:20;;;;;;;2.67;2.47;;;;;;;29.94;45.23;99969.00;4976266;28;20205;-72
2022/06/20 09:00:56;;;;;;;2.90;2.65;;;;;;;30.00;45.74;99994.50;4938668;28;20198;-74
2022/06/20 09:03:58;;;;;;;10.55;2.45;;;;;;;29.88;46.43;99996.16;4985051;28;20229;-71
2022/06/20 09:06:45;;;;;;;5.50;2.40;;;;;;;29.53;46.73;99982.41;4921861;29;20218;-71
2022/06/20 09:09:43;;;;;;;4.25;2.33;;;;;;;29.71;46.95;99983.00;4885458;29;20203;-71
2022/06/20 09:12:42;;;;;;;6.53;3.70;;;;;;;29.56;47.15;99985.81;4928709;29;20222;-70
2022/06/20 09:15:27;;;;;;;2.10;2.00;;;;;;;29.33;46.83;99988.13;4856995;29;20246;-70
2022/06/20 09:18:03;;;;;;;3.53;2.30;;;;;;;29.37;45.50;99964.75;4857028;29;20201;-70
2022/06/20 09:20:36;;;;;;;2.03;1.90;;;;;;;29.45;44.00;99973.16;4856921;29;20231;-72
2022/06/20 09:23:14;;;;;;;5.03;2.25;;;;;;;29.73;44.17;99980.22;4892551;29;20650;-71
2022/06/20 09:25:50;;;;;;;2.00;1.90;;;;;;;29.85;43.17;99977.66;4916846;29;20738;-72
2022/06/20 09:28:32;;;;;;;1.95;1.80;;;;;;;29.92;41.40;99970.94;4912978;29;20718;-72
2022/06/20 09:31:07;;;;;;;1.98;1.80;;;;;;;29.77;40.56;99973.72;4912878;29;20303;-72
2022/06/20 09:34:00;;;;;;;2.83;1.90;;;;;;;29.84;40.10;99967.00;4913113;29;20215;-72
2022/06/20 09:37:01;;;;;;;1.83;1.83;;;;;;;29.65;39.63;99971.84;4964613;28;20204;-76
2022/06/20 09:39:40;;;;;;;2.00;1.80;;;;;;;29.80;39.75;99963.69;4984419;28;20700;-79
2022/06/20 09:42:19;;;;;;;1.88;1.77;;;;;;;29.86;40.51;99962.44;4934227;28;20205;-77
2022/06/20 09:44:55;;;;;;;5.18;2.55;;;;;;;29.72;40.10;99952.63;5044634;28;20227;-76
2022/06/20 09:47:34;;;;;;;4.50;2.83;;;;;;;29.64;40.03;99964.81;5030163;28;20203;-78
2022/06/20 09:50:18;;;;;;;2.03;1.80;;;;;;;29.88;40.33;99961.41;5029782;28;20694;-79
2022/06/20 09:52:54;;;;;;;2.38;2.00;;;;;;;30.06;41.20;99961.13;5095012;28;20229;-80
2022/06/20 09:55:28;;;;;;;2.65;2.00;;;;;;;29.89;41.45;99941.72;5100234;28;20667;-77
2022/06/20 09:58:03;;;;;;;2.97;1.73;;;;;;;29.68;41.64;99943.09;5097535;28;20192;-78
2022/06/20 10:00:36;;;;;;;4.35;2.13;;;;;;;29.95;40.53;99946.66;5092017;28;20228;-78
2022/06/20 10:03:12;;;;;;;1.73;1.63;;;;;;;30.29;41.54;99963.09;5092354;28;20225;-77
2022/06/20 10:05:49;;;;;;;2.00;1.90;;;;;;;30.22;40.55;99956.44;5096927;28;20630;-79
2022/06/20 10:08:33;;;;;;;1.80;1.70;;;;;;;30.36;40.11;99949.19;5099882;28;20201;-77
2022/06/20 10:11:08;;;;;;;2.15;1.98;;;;;;;30.58;40.77;99953.94;5091647;28;20266;-75
2022/06/20 10:13:44;;;;;;;2.15;1.95;;;;;;;30.31;40.76;99926.41;5106243;28;20640;-77
2022/06/20 10:16:21;;;;;;;1.73;1.73;;;;;;;30.52;38.70;99938.31;5112330;28;20690;-77
2022/06/20 10:18:55;;;;;;;1.88;1.77;;;;;;;30.72;38.87;99940.44;5097281;28;20677;-80
2022/06/20 10:21:28;;;;;;;1.73;1.63;;;;;;;30.57;37.27;99920.13;5100247;28;20665;-77
2022/06/20 10:24:27;;;;;;;3.15;2.17;;;;;;;30.76;36.19;99935.75;5097854;28;20229;-78
2022/06/20 10:27:22;;;;;;;6.63;2.63;;;;;;;30.78;38.69;99925.78;5100591;28;20202;-78
2022/06/20 10:30:06;;;;;;;3.22;2.15;;;;;;;30.44;35.82;99916.59;5094878;28;20209;-78
2022/06/20 10:32:55;;;;;;;2.30;2.10;;;;;;;30.67;35.58;99928.38;5095351;28;20212;-79
2022/06/20 10:35:35;;;;;;;4.13;2.65;;;;;;;30.46;35.47;99906.66;5064192;28;20198;-79
2022/06/20 10:38:08;;;;;;;2.00;1.90;;;;;;;30.55;35.14;99927.41;5072152;28;20698;-77
2022/06/20 10:40:43;;;;;;;2.28;2.13;;;;;;;30.44;36.09;99924.59;5072679;28;20278;-76
2022/06/20 10:43:13;;;;;;;2.47;2.00;;;;;;;30.38;36.73;99914.31;5057808;28;20202;-78
2022/06/20 10:45:46;;;;;;;2.53;2.13;;;;;;;30.44;36.79;99905.88;5072533;28;20197;-80
2022/06/20 10:48:51;;;;;;;2.50;2.20;;;;;;;30.87;36.79;99917.97;5072835;28;20202;-78
2022/06/20 10:51:31;;;;;;;2.40;2.13;;;;;;;30.96;37.21;99887.00;5032591;28;20709;-78
2022/06/20 10:54:14;;;;;;;3.80;2.40;;;;;;;31.08;37.17;99898.66;5032481;28;20227;-75
2022/06/20 10:56:52;;;;;;;3.70;2.05;;;;;;;30.89;36.81;99905.28;5032615;28;20199;-78
2022/06/20 10:59:38;;;;;;;2.13;2.03;;;;;;;30.89;37.42;99889.22;5032567;28;20655;-78
2022/06/20 11:02:19;;;;;;;6.97;2.20;;;;;;;31.09;38.25;99895.88;5032342;28;20203;-77
2022/06/20 11:05:01;;;;;;;2.15;1.88;;;;;;;31.06;38.01;99900.59;5032886;28;20223;-79
2022/06/20 11:07:36;;;;;;;4.43;2.25;;;;;;;31.09;38.20;99893.19;5032776;28;20261;-80
2022/06/20 11:10:10;;;;;;;3.05;1.75;;;;;;;31.17;37.32;99865.84;5032294;28;20557;-78
2022/06/20 11:12:53;;;;;;;3.25;2.22;;;;;;;31.60;36.75;99885.88;5041549;28;20711;-79
2022/06/20 11:15:29;;;;;;;4.20;1.90;;;;;;;31.39;36.62;99852.59;5052438;28;20206;-78
2022/06/20 11:18:11;;;;;;;2.10;2.00;;;;;;;31.68;36.68;99872.72;5052470;28;20647;-78
2022/06/20 11:20:42;;;;;;;2.30;1.83;;;;;;;31.86;36.19;99882.03;5052397;28;20202;-78
2022/06/20 11:23:16;;;;;;;5.57;2.00;;;;;;;31.91;36.04;99858.44;5051787;28;20691;-78
2022/06/20 11:25:55;;;;;;;2.75;1.90;;;;;;;32.38;35.45;99881.63;5051814;28;20213;-77
2022/06/20 11:28:58;;;;;;;5.40;2.10;;;;;;;32.38;36.04;99864.66;5093082;28;20208;-78
2022/06/20 11:31:38;;;;;;;3.83;1.83;;;;;;;31.95;35.00;99825.03;5039381;28;20241;-78
2022/06/20 11:34:27;;;;;;;10.65;2.53;;;;;;;31.94;35.55;99866.22;5051969;28;20310;-77
2022/06/20 11:37:11;;;;;;;3.08;2.10;;;;;;;31.71;35.52;99834.97;5045176;28;20213;-80
2022/06/20 11:39:56;;;;;;;2.70;2.50;;;;;;;31.85;36.35;99858.91;5050326;28;20202;-78
2022/06/20 11:42:51;;;;;;;3.35;2.42;;;;;;;31.75;36.15;99852.50;5048429;28;20290;-77
2022/06/20 11:45:40;;;;;;;6.00;2.30;;;;;;;31.19;35.89;99845.16;4998963;28;20230;-78
2022/06/20 11:48:22;;;;;;;2.28;2.08;;;;;;;31.30;35.70;99845.22;5049902;28;20206;-79
2022/06/20 11:50:58;;;;;;;3.35;2.05;;;;;;;31.44;36.02;99842.34;5051448;28;20198;-78
2022/06/20 11:53:41;;;;;;;4.82;2.60;;;;;;;31.61;36.05;99839.28;5050667;28;20254;-79
2022/06/20 11:56:16;;;;;;;6.13;2.17;;;;;;;31.50;37.12;99838.38;5051378;28;20207;-79
2022/06/20 11:59:07;;;;;;;2.53;2.30;;;;;;;31.43;36.45;99827.22;5051660;28;20212;-75
2022/06/20 12:01:48;;;;;;;2.50;2.22;;;;;;;32.00;36.69;99829.19;5050586;28;20593;-78
2022/06/20 12:04:19;;;;;;;2.42;1.90;;;;;;;31.94;36.40;99809.91;5050876;28;20230;-78
2022/06/20 12:06:51;;;;;;;2.25;2.15;;;;;;;31.68;36.02;99821.75;5070366;28;20648;-79
2022/06/20 12:09:26;;;;;;;3.38;2.10;;;;;;;31.35;35.70;99725.13;5095436;28;20197;-79
2022/06/20 12:12:18;;;;;;;2.72;2.20;;;;;;;31.91;35.72;99831.59;5114201;28;20212;-79
2022/06/20 12:15:00;;;;;;;3.45;2.20;;;;;;;31.79;36.49;99831.66;5050577;28;20210;-79
2022/06/20 12:17:36;;;;;;;3.30;2.20;;;;;;;32.14;35.44;99823.63;5051130;28;20199;-79
2022/06/20 12:23:26;;;;;;;2.20;2.10;;;;;;;31.89;36.23;99795.97;5051668;28;20677;-80
2022/06/20 12:25:59;;;;;;;2.92;2.40;;;;;;;32.25;35.76;99813.75;5050694;28;20694;-79
2022/06/20 12:28:31;;;;;;;2.90;2.45;;;;;;;32.30;35.46;99816.06;5051227;28;20207;-80
2022/06/20 12:31:11;;;;;;;2.67;2.17;;;;;;;32.47;35.27;99809.34;5050615;28;20195;-80
2022/06/20 12:33:42;;;;;;;4.07;2.53;;;;;;;32.69;35.68;99804.88;5048073;28;20542;-80
2022/06/20 12:36:23;;;;;;;3.60;2.53;;;;;;;32.58;35.75;99804.00;5049847;28;20213;-79
2022/06/20 12:38:57;;;;;;;2.53;2.33;;;;;;;32.78;36.03;99795.22;5050600;28;20198;-78
2022/06/20 12:41:28;;;;;;;2.55;2.00;;;;;;;32.78;35.34;99800.59;5046092;28;20203;-79
2022/06/20 12:44:11;;;;;;;2.70;1.90;;;;;;;32.67;35.46;99808.66;5047804;28;20230;-79
2022/06/20 12:46:54;;;;;;;5.70;2.40;;;;;;;32.78;34.83;99785.34;5049004;28;20203;-80
2022/06/20 12:49:47;;;;;;;2.15;2.05;;;;;;;32.95;35.62;99775.03;5045055;28;20202;-79
2022/06/20 12:52:19;;;;;;;4.20;2.28;;;;;;;33.00;34.77;99776.34;5026332;28;20223;-78
2022/06/20 12:55:10;;;;;;;3.33;2.10;;;;;;;32.85;35.17;99762.38;5047726;28;20195;-79
2022/06/20 12:57:53;;;;;;;2.53;2.33;;;;;;;32.88;34.49;99759.44;5047147;28;20195;-77
2022/06/20 13:00:32;;;;;;;4.47;2.00;;;;;;;32.70;35.31;99744.81;5045603;28;20702;-78
2022/06/20 13:03:49;;;;;;;2.17;2.08;;;;;;;32.23;34.92;99739.72;5046816;28;20224;-77
2022/06/20 13:06:37;;;;;;;7.95;2.15;;;;;;;32.51;34.59;99752.63;4979430;28;20194;-77
2022/06/20 13:09:28;;;;;;;2.50;2.30;;;;;;;32.54;34.78;99697.81;4978233;28;20201;-78
2022/06/20 13:12:06;;;;;;;2.45;2.30;;;;;;;32.82;34.75;99748.34;4989138;28;20232;-76
2022/06/20 13:14:48;;;;;;;3.88;2.17;;;;;;;32.81;34.37;99755.53;4990345;28;20205;-77
2022/06/20 13:17:27;;;;;;;4.68;1.95;;;;;;;33.16;34.80;99746.41;4985402;28;20208;-77
2022/06/20 13:20:19;;;;;;;3.35;1.98;;;;;;;33.32;33.86;99749.50;4986796;28;20205;-77
2022/06/20 13:22:55;;;;;;;2.53;2.30;;;;;;;32.92;35.46;99742.09;4989892;28;20240;-78
2022/06/20 13:25:36;;;;;;;2.20;2.10;;;;;;;33.16;34.37;99739.22;4953077;28;20221;-77
2022/06/20 13:28:13;;;;;;;3.25;3.05;;;;;;;33.73;33.87;99746.88;4984596;28;20236;-77
2022/06/20 13:30:57;;;;;;;2.30;2.10;;;;;;;33.71;33.34;99738.06;5069293;28;20193;-76
2022/06/20 13:33:34;;;;;;;2.30;2.20;;;;;;;33.13;33.35;99736.78;5065664;28;20231;-77
2022/06/20 13:36:15;;;;;;;2.45;2.35;;;;;;;32.88;34.67;99737.06;5049093;28;20252;-75
2022/06/20 13:38:49;;;;;;;6.00;2.65;;;;;;;32.63;36.17;99732.88;5093430;28;20201;-77
2022/06/20 13:41:22;;;;;;;3.05;2.70;;;;;;;32.46;35.38;99730.69;5109431;28;20192;-78
2022/06/20 13:43:58;;;;;;;2.55;2.35;;;;;;;32.40;34.84;99733.84;5110850;28;20205;-76
2022/06/20 13:46:32;;;;;;;3.28;2.97;;;;;;;32.26;34.89;99728.72;5111376;28;20656;-77
2022/06/20 13:49:06;;;;;;;2.63;2.42;;;;;;;32.36;35.14;99727.00;5109904;28;20208;-76
2022/06/20 13:51:42;;;;;;;3.10;2.75;;;;;;;32.18;35.01;99693.59;5108591;28;20196;-76
2022/06/20 13:54:20;;;;;;;8.85;2.70;;;;;;;31.84;36.51;99725.75;5111528;28;20223;-77
2022/06/20 13:56:58;;;;;;;4.05;2.70;;;;;;;32.29;36.59;99712.38;5111490;28;20193;-75
2022/06/20 13:59:31;;;;;;;2.40;2.28;;;;;;;32.68;35.07;99679.63;5110050;28;20195;-74
2022/06/20 14:02:01;;;;;;;4.90;2.55;;;;;;;33.26;33.91;99693.56;5108378;28;20207;-74
2022/06/20 14:04:30;;;;;;;9.52;2.60;;;;;;;33.47;34.38;99689.06;5112067;28;20228;-78
2022/06/20 14:07:00;;;;;;;2.42;2.30;;;;;;;34.09;33.17;99712.38;5107606;28;20219;-79
2022/06/20 14:09:30;;;;;;;2.90;2.20;;;;;;;33.75;33.70;99668.72;5110857;28;20208;-75
2022/06/20 14:12:00;;;;;;;2.75;2.30;;;;;;;34.08;32.62;99706.13;5110012;28;20374;-76
2022/06/20 14:14:32;;;;;;;2.63;2.42;;;;;;;33.46;33.73;99697.28;5073862;28;20205;-77